createdAt,value
2016-11-29T13:16:26.280Z,36.85
2016-11-29T13:17:26.309Z,35.52
2016-11-29T13:18:26.357Z,34.67
2016-11-29T13:18:55.796Z,34.69
2016-11-29T13:19:21.906Z,33.73
2016-11-29T13:19:48.196Z,33.53
2016-11-29T13:31:43.761Z,28.11
2016-11-29T13:32:09.873Z,27.72
2016-11-29T13:32:36.121Z,27.34
2016-11-29T13:33:02.245Z,27.34
2016-11-29T13:33:28.356Z,27.34
2016-11-29T13:33:54.459Z,26.67
2016-11-29T14:46:29.736Z,64.84
2016-11-29T14:46:55.817Z,63.17
2016-11-29T14:47:21.908Z,62.02
2016-11-29T14:48:26.401Z,69.14
2016-11-29T14:48:52.490Z,69.93
2016-11-29T14:49:18.591Z,64.34
2016-11-29T14:49:44.702Z,59.19
2016-11-29T14:50:10.790Z,56.35
2016-11-29T14:50:36.872Z,54.15
2016-11-29T14:51:02.978Z,52.62
2016-11-29T14:51:29.074Z,51.98
2016-11-29T14:51:55.169Z,50.93
2016-11-29T14:52:21.287Z,50.45
2016-11-29T14:52:47.382Z,49.71
2016-11-29T14:53:13.468Z,49.14
2016-11-29T14:53:39.581Z,48.47
2016-11-29T14:54:05.652Z,48.39
2016-11-29T14:54:31.751Z,47.16
2016-11-29T14:54:57.845Z,46.67
2016-11-29T14:55:23.959Z,45.84
2016-11-29T14:55:50.060Z,44.98
2016-11-29T14:56:16.155Z,44.88
2016-11-29T14:56:42.241Z,44.12
2016-11-29T14:57:08.338Z,43.54
2016-11-29T14:57:34.438Z,43.47
2016-11-29T14:58:00.522Z,44.04
2016-11-29T14:58:26.624Z,36.25
2016-11-29T14:58:52.724Z,31.27
2016-11-29T14:59:18.812Z,29.44
2016-11-29T14:59:44.912Z,28.57
2016-11-29T15:00:11.019Z,28.46
2016-11-29T15:00:37.119Z,29.41
2016-11-29T15:01:03.216Z,29.69
2016-11-29T15:01:29.303Z,30.64
2016-11-29T15:01:55.895Z,31.01
2016-11-29T15:02:21.996Z,31.2
2016-11-29T15:02:48.821Z,31.87
2016-11-29T15:03:15.864Z,32.23
2016-11-29T15:03:43.029Z,33
2016-11-29T15:04:09.749Z,33.17
2016-11-29T15:04:36.052Z,33.64
2016-11-29T15:05:03.312Z,34.39
2016-11-29T15:05:31.046Z,34.3
2016-11-29T15:05:57.888Z,35.42
2016-11-29T15:06:24.935Z,35.89
2016-11-29T15:06:52.063Z,36.45
2016-11-29T15:07:19.174Z,37.49
2016-11-29T15:07:46.648Z,37.97
2016-11-29T15:08:14.224Z,38.53
2016-11-29T15:08:41.008Z,39
2016-11-29T15:09:07.232Z,39.67
2016-11-29T15:09:33.319Z,39.86
2016-11-29T15:09:59.499Z,40.05
2016-11-29T15:10:25.531Z,40.14
2016-11-29T15:10:51.653Z,40.14
2016-11-29T15:11:17.769Z,40.14
2016-11-29T15:11:43.894Z,40.14
2016-11-29T15:12:10.283Z,40.71
2016-11-29T15:12:36.425Z,40.69
2016-11-29T15:13:02.540Z,40.69
2016-11-29T15:13:28.655Z,40.88
2016-11-29T15:13:54.775Z,40.98
2016-11-29T15:14:20.872Z,41.17
2016-11-29T15:14:46.964Z,42.02
2016-11-29T15:15:13.071Z,41.83
2016-11-29T15:15:39.173Z,42.02
2016-11-29T15:16:05.271Z,42.02
2016-11-29T15:16:31.402Z,42.5
2016-11-29T15:16:57.517Z,42.79
2016-11-29T15:17:23.607Z,42.57
2016-11-29T15:17:49.711Z,43.14
2016-11-29T15:18:15.796Z,43.24
2016-11-29T15:18:41.906Z,43.43
2016-11-29T15:19:08.037Z,43.62
2016-11-29T15:19:34.148Z,43.8
2016-11-29T15:20:00.264Z,43.71
2016-11-29T15:20:26.389Z,43.71
2016-11-29T15:20:52.487Z,44
2016-11-29T15:21:18.568Z,44.19
2016-11-29T15:21:44.666Z,44.35
2016-11-29T15:22:10.779Z,44.64
2016-11-29T15:22:36.944Z,44.45
2016-11-29T15:23:03.041Z,44.64
2016-11-29T15:23:29.146Z,44.73
2016-11-29T15:23:55.302Z,45.12
2016-11-29T15:24:21.381Z,45.21
2016-11-29T15:24:47.464Z,45.59
2016-11-29T15:25:13.562Z,45.59
2016-11-29T15:25:39.658Z,45.68
2016-11-29T15:26:05.739Z,45.4
2016-11-29T15:26:31.834Z,45.87
2016-11-29T15:26:57.936Z,45.87
2016-11-29T15:27:24.019Z,46.73
2016-11-29T15:27:50.116Z,46.73
2016-11-29T15:28:16.202Z,46.54
2016-11-29T15:28:42.299Z,46.45
2016-11-29T15:29:08.399Z,46.9
2016-11-29T15:29:34.479Z,46.8
2016-11-29T15:30:00.570Z,47.28
2016-11-29T15:30:26.672Z,47.66
2016-11-29T15:30:52.760Z,47.94
2016-11-29T15:31:18.851Z,47.75
2016-11-29T15:31:44.951Z,48.32
2016-11-29T15:32:11.036Z,48.03
2016-11-29T15:32:37.121Z,48.51
2016-11-29T15:33:03.216Z,48.61
2016-11-29T15:33:29.310Z,48.41
2016-11-29T15:33:55.411Z,49.18
2016-11-29T15:34:21.496Z,49.46
2016-11-29T15:34:47.588Z,49.27
2016-11-29T15:35:13.686Z,49.65
2016-11-29T15:35:39.771Z,49.93
2016-11-29T15:36:05.853Z,49.37
2016-11-29T15:36:31.957Z,49.46
2016-11-29T15:36:58.052Z,49.46
2016-11-29T15:37:24.131Z,49.46
2016-11-29T15:37:50.227Z,49.65
2016-11-29T15:38:16.320Z,50.03
2016-11-29T15:38:42.411Z,50.03
2016-11-29T15:39:08.496Z,49.84
2016-11-29T15:39:34.579Z,50.03
2016-11-29T15:40:00.685Z,50.2
2016-11-29T15:40:26.776Z,50.2
2016-11-29T15:40:52.864Z,49.82
2016-11-29T15:41:18.964Z,50.2
2016-11-29T15:41:45.055Z,50.38
2016-11-29T15:42:11.134Z,50.67
2016-11-29T15:42:37.233Z,50.67
2016-11-29T15:43:03.329Z,50.67
2016-11-29T15:43:29.414Z,50.48
2016-11-29T15:43:55.511Z,50.57
2016-11-29T15:44:21.599Z,50.48
2016-11-29T15:44:47.696Z,50.95
2016-11-29T15:45:13.785Z,50.76
2016-11-29T15:45:39.871Z,50.86
2016-11-29T15:46:05.971Z,50.86
2016-11-29T15:46:32.068Z,51.05
2016-11-29T15:46:58.149Z,51.81
2016-11-29T15:47:24.243Z,51.9
2016-11-29T15:47:50.345Z,51.81
2016-11-29T15:48:16.426Z,51.33
2016-11-29T15:48:42.517Z,51.33
2016-11-29T15:49:08.611Z,51.52
2016-11-29T15:49:34.698Z,51.62
2016-11-29T15:50:00.796Z,51.52
2016-11-29T15:50:26.874Z,51.43
2016-11-29T15:50:52.966Z,51.52
2016-11-29T15:51:19.066Z,51.52
2016-11-29T15:51:45.151Z,51.62
2016-11-29T15:52:11.243Z,51.81
2016-11-29T15:52:37.344Z,52.28
2016-11-29T15:53:03.428Z,51.43
2016-11-29T15:53:29.512Z,52.47
2016-11-29T15:53:55.611Z,52.28
2016-11-29T15:54:21.703Z,52.37
2016-11-29T15:54:47.786Z,52.47
2016-11-29T15:55:13.883Z,52.47
2016-11-29T15:55:39.977Z,52.47
2016-11-29T15:56:06.056Z,52.28
2016-11-29T15:56:32.152Z,52.37
2016-11-29T15:56:58.247Z,52.28
2016-11-29T15:57:24.327Z,52.28
2016-11-29T15:57:50.414Z,52.54
2016-11-29T15:58:16.514Z,52.73
2016-11-29T15:58:42.597Z,52.54
2016-11-29T15:59:08.685Z,53.04
2016-11-29T15:59:34.780Z,53.14
2016-11-29T16:00:00.867Z,53.11
2016-11-29T16:00:26.952Z,53.02
2016-11-29T16:00:53.045Z,53.39
2016-11-29T16:01:19.137Z,53.87
2016-11-29T16:01:45.239Z,53.68
2016-11-29T16:02:11.326Z,54.15
2016-11-29T16:02:37.414Z,54.06
2016-11-29T16:03:03.514Z,53.96
2016-11-29T16:03:29.601Z,53.87
2016-11-29T16:03:55.680Z,53.87
2016-11-29T16:04:21.783Z,54.15
2016-11-29T16:04:47.876Z,54.53
2016-11-29T16:05:13.962Z,54.82
2016-11-29T16:05:40.063Z,55
2016-11-29T16:06:06.157Z,55.19
2016-11-29T16:06:32.254Z,55.29
2016-11-29T16:06:58.332Z,54.91
2016-11-29T16:07:24.411Z,55.38
2016-11-29T16:07:50.512Z,55.38
2016-11-29T16:08:16.601Z,55.19
2016-11-29T16:08:42.686Z,54.82
2016-11-29T16:09:08.785Z,54.91
2016-11-29T16:09:34.877Z,55.19
2016-11-29T16:10:00.981Z,55.19
2016-11-29T16:10:27.070Z,55.29
2016-11-29T16:10:53.167Z,54.91
2016-11-29T16:11:19.248Z,55
2016-11-29T16:11:45.341Z,55.19
2016-11-29T16:12:11.424Z,55.1
2016-11-29T16:12:37.520Z,55.19
2016-11-29T16:13:03.608Z,54.63
2016-11-29T16:13:29.691Z,54.63
2016-11-29T16:13:55.791Z,55.1
2016-11-29T16:14:21.886Z,54.63
2016-11-29T16:14:47.990Z,54.63
2016-11-29T16:15:14.086Z,54.72
2016-11-29T16:15:40.184Z,55.1
2016-11-29T16:16:06.264Z,54.82
2016-11-29T16:16:32.351Z,55
2016-11-29T16:16:58.448Z,55.1
2016-11-29T16:17:24.532Z,54.72
2016-11-29T16:17:50.617Z,55.38
2016-11-29T16:18:16.742Z,55.1
2016-11-29T16:18:42.831Z,54.72
2016-11-29T16:19:08.915Z,55.19
2016-11-29T16:19:35.015Z,54.91
2016-11-29T16:20:01.110Z,55.19
2016-11-29T16:20:27.191Z,54.91
2016-11-29T16:20:53.286Z,54.63
2016-11-29T16:21:19.387Z,55.19
2016-11-29T16:21:45.466Z,55.19
2016-11-29T16:22:11.557Z,55
2016-11-29T16:22:37.653Z,55
2016-11-29T16:23:03.739Z,54.91
2016-11-29T16:23:29.831Z,55.29
2016-11-29T16:23:55.913Z,54.91
2016-11-29T16:24:22.008Z,55.19
2016-11-29T16:24:48.110Z,54.91
2016-11-29T16:25:14.185Z,55.1
2016-11-29T16:25:40.279Z,55.76
2016-11-29T16:26:06.380Z,55.19
2016-11-29T16:26:32.459Z,55.38
2016-11-29T16:26:58.547Z,55.29
2016-11-29T16:27:24.651Z,55.1
2016-11-29T16:27:50.741Z,55.19
2016-11-29T16:28:16.822Z,54.91
2016-11-29T16:28:42.919Z,55
2016-11-29T16:29:09.012Z,55.19
2016-11-29T16:29:35.111Z,55.1
2016-11-29T16:30:01.190Z,55.29
2016-11-29T16:30:27.279Z,55.38
2016-11-29T16:30:53.379Z,55.29
2016-11-29T16:31:19.465Z,55.57
2016-11-29T16:31:45.548Z,55.67
2016-11-29T16:32:11.675Z,55.67
2016-11-29T16:32:37.766Z,55.48
2016-11-29T16:33:03.851Z,55.67
2016-11-29T16:33:29.951Z,55.38
2016-11-29T16:33:56.044Z,55.48
2016-11-29T16:34:22.140Z,55.86
2016-11-29T16:34:48.228Z,55.76
2016-11-29T16:35:14.310Z,55.96
2016-11-29T16:35:40.416Z,55.76
2016-11-29T16:36:06.539Z,56.43
2016-11-29T16:36:32.595Z,56.24
2016-11-29T16:36:58.693Z,56.15
2016-11-29T16:37:24.785Z,56.34
2016-11-29T16:37:50.864Z,56.05
2016-11-29T16:38:16.959Z,56.05
2016-11-29T16:38:43.054Z,56.52
2016-11-29T16:39:09.137Z,56.24
2016-11-29T16:39:35.224Z,56.15
2016-11-29T16:40:01.327Z,55.96
2016-11-29T16:40:27.409Z,56.15
2016-11-29T16:40:53.497Z,56.05
2016-11-29T16:41:19.595Z,56.43
2016-11-29T16:41:45.682Z,56.34
2016-11-29T16:42:11.768Z,56.15
2016-11-29T16:42:37.870Z,56.24
2016-11-29T16:43:03.963Z,56.34
2016-11-29T16:43:30.044Z,55.96
2016-11-29T16:43:56.143Z,55.96
2016-11-29T16:44:22.234Z,56.05
2016-11-29T16:44:48.317Z,56.34
2016-11-29T16:45:14.407Z,56.34
2016-11-29T16:45:40.492Z,56.24
2016-11-29T16:46:06.594Z,56.34
2016-11-29T16:46:32.681Z,56.05
2016-11-29T16:46:58.765Z,56.15
2016-11-29T16:47:24.888Z,56.02
2016-11-29T16:47:50.986Z,55.93
2016-11-29T16:48:17.070Z,56.05
2016-11-29T16:48:43.166Z,56.24
2016-11-29T16:49:09.263Z,56.02
2016-11-29T16:49:35.346Z,56.15
2016-11-29T16:50:01.443Z,56.15
2016-11-29T16:50:27.542Z,56.21
2016-11-29T16:50:53.630Z,56.4
2016-11-29T16:51:19.723Z,56.3
2016-11-29T16:51:45.808Z,56.3
2016-11-29T16:52:11.906Z,56.49
2016-11-29T16:52:38.031Z,56.3
2016-11-29T16:53:04.113Z,56.21
2016-11-29T16:53:30.204Z,56.02
2016-11-29T16:53:56.332Z,55.83
2016-11-29T16:54:22.413Z,55.93
2016-11-29T16:54:48.500Z,56.4
2016-11-29T16:55:14.600Z,56.02
2016-11-29T16:55:40.683Z,56.12
2016-11-29T16:56:06.770Z,56.21
2016-11-29T16:56:32.861Z,56.02
2016-11-29T16:56:58.955Z,56.4
2016-11-29T16:57:25.051Z,56.3
2016-11-29T16:57:51.166Z,55.83
2016-11-29T16:58:17.258Z,55.83
2016-11-29T16:58:43.354Z,55.93
2016-11-29T16:59:09.443Z,55.83
2016-11-29T16:59:35.528Z,55.83
2016-11-29T17:00:01.625Z,55.55
2016-11-29T17:00:27.712Z,55.74
2016-11-29T17:00:53.791Z,55.55
2016-11-29T17:01:19.884Z,55.55
2016-11-29T17:01:45.978Z,55.83
2016-11-29T17:02:12.071Z,55.83
2016-11-29T17:02:38.159Z,55.74
2016-11-29T17:03:04.244Z,55.36
2016-11-29T17:03:30.369Z,55.55
2016-11-29T17:03:56.463Z,55.36
2016-11-29T17:04:22.550Z,55.74
2016-11-29T17:04:48.675Z,56.12
2016-11-29T17:05:14.768Z,55.93
2016-11-29T17:05:40.845Z,55.93
2016-11-29T17:06:06.938Z,56.02
2016-11-29T17:06:33.039Z,55.83
2016-11-29T17:06:59.139Z,55.55
2016-11-29T17:07:25.231Z,55.26
2016-11-29T17:07:51.324Z,55.45
2016-11-29T17:08:17.420Z,56.02
2016-11-29T17:08:43.512Z,55.83
2016-11-29T17:09:09.596Z,55.74
2016-11-29T17:09:35.695Z,55.93
2016-11-29T17:10:01.822Z,56.12
2016-11-29T17:10:27.904Z,55.76
2016-11-29T17:10:54.002Z,56.05
2016-11-29T17:11:20.100Z,55.74
2016-11-29T17:11:46.185Z,56.34
2016-11-29T17:12:12.275Z,55.96
2016-11-29T17:12:38.376Z,55.93
2016-11-29T17:13:04.467Z,55.74
2016-11-29T17:13:30.563Z,56.52
2016-11-29T17:13:56.676Z,56.34
2016-11-29T17:14:22.770Z,56.34
2016-11-29T17:14:48.869Z,56.24
2016-11-29T17:15:14.967Z,56.34
2016-11-29T17:15:41.063Z,56.4
2016-11-29T17:16:07.156Z,56.34
2016-11-29T17:16:33.246Z,55.76
2016-11-29T17:16:59.365Z,56.05
2016-11-29T17:17:25.456Z,56.15
2016-11-29T17:17:51.542Z,55.96
2016-11-29T17:18:17.630Z,55.38
2016-11-29T17:18:43.740Z,55.48
2016-11-29T17:19:09.868Z,55.67
2016-11-29T17:19:36.049Z,55.67
2016-11-29T17:20:03.109Z,55.57
2016-11-29T17:20:29.665Z,55.67
2016-11-29T17:20:55.975Z,55.1
2016-11-29T17:21:22.148Z,54.91
2016-11-29T17:21:48.269Z,55.67
2016-11-29T17:22:14.387Z,55.19
2016-11-29T17:22:40.490Z,55.29
2016-11-29T17:23:06.630Z,54.91
2016-11-29T17:23:32.726Z,55.1
2016-11-29T17:23:58.975Z,54.91
2016-11-29T17:24:25.420Z,55.19
2016-11-29T17:24:52.075Z,54.91
2016-11-29T17:25:18.695Z,55.19
2016-11-29T17:25:45.370Z,55.19
2016-11-29T17:26:11.891Z,55.57
2016-11-29T17:26:37.982Z,55.38
2016-11-29T17:27:04.717Z,55.57
2016-11-29T17:27:31.220Z,55.19
2016-11-29T17:27:57.386Z,55.1
2016-11-29T17:28:23.492Z,55
2016-11-29T17:28:49.881Z,55
2016-11-29T17:29:16.625Z,55.1
2016-11-29T17:29:42.934Z,55.38
2016-11-29T17:30:12.828Z,55.29
2016-11-29T17:30:38.898Z,55.38
2016-11-29T17:31:05.649Z,55.38
2016-11-29T17:31:31.915Z,55.67
2016-11-29T17:31:58.795Z,55.86
2016-11-29T17:32:24.914Z,55.48
2016-11-29T17:32:51.154Z,55.57
2016-11-29T17:33:17.344Z,55.48
2016-11-29T17:33:43.778Z,55.67
2016-11-29T17:34:10.522Z,55.96
2016-11-29T17:34:36.997Z,55.57
2016-11-29T17:35:03.914Z,56.05
2016-11-29T17:35:30.078Z,56.15
2016-11-29T17:35:56.965Z,55.96
2016-11-29T17:36:23.402Z,56.43
2016-11-29T17:36:49.611Z,56.15
2016-11-29T17:37:16.061Z,55.96
2016-11-29T17:37:42.484Z,56.15
2016-11-29T17:38:09.221Z,55.86
2016-11-29T17:38:35.618Z,56.4
2016-11-29T17:39:01.782Z,57.16
2016-11-29T17:39:27.967Z,57.54
2016-11-29T17:39:54.574Z,57.44
2016-11-29T17:40:21.176Z,57.64
2016-11-29T17:40:47.874Z,58.11
2016-11-29T17:41:14.196Z,58.77
2016-11-29T17:41:40.369Z,59.15
2016-11-29T17:42:06.532Z,59.81
2016-11-29T17:42:33.332Z,59.63
2016-11-29T17:42:59.491Z,60.19
2016-11-29T17:43:25.669Z,60.35
2016-11-29T17:43:51.815Z,60.28
2016-11-29T17:44:18.057Z,60.54
2016-11-29T17:44:44.391Z,60.92
2016-11-29T17:45:11.588Z,61.77
2016-11-29T17:45:37.954Z,61.68
2016-11-29T17:46:04.694Z,61.61
2016-11-29T17:46:31.195Z,61.4
2016-11-29T17:46:57.354Z,61.14
2016-11-29T17:47:23.503Z,61.61
2016-11-29T17:47:49.656Z,61.58
2016-11-29T17:48:15.792Z,61.24
2016-11-29T17:48:42.090Z,61.05
2016-11-29T17:49:08.737Z,60.57
2016-11-29T17:49:35.016Z,60.76
2016-11-29T17:50:01.487Z,60.76
2016-11-29T17:50:27.735Z,61.24
2016-11-29T17:50:53.845Z,61.61
2016-11-29T17:51:20.003Z,61.33
2016-11-29T17:51:46.456Z,61.61
2016-11-29T17:52:12.745Z,61.9
2016-11-29T17:52:39.225Z,61.99
2016-11-29T17:53:05.480Z,61.8
2016-11-29T17:53:32.139Z,61.99
2016-11-29T17:53:58.948Z,61.8
2016-11-29T17:54:25.773Z,61.8
2016-11-29T17:54:51.809Z,62.08
2016-11-29T17:55:17.907Z,61.71
2016-11-29T17:55:44.028Z,61.61
2016-11-29T17:56:10.106Z,61.9
2016-11-29T17:56:36.222Z,61.61
2016-11-29T17:57:02.319Z,61.58
2016-11-29T17:57:28.403Z,61.8
2016-11-29T17:57:54.496Z,61.8
2016-11-29T17:58:20.583Z,61.61
2016-11-29T17:58:46.678Z,61.8
2016-11-29T17:59:12.780Z,61.9
2016-11-29T17:59:38.859Z,61.9
2016-11-29T18:00:04.951Z,61.43
2016-11-29T18:00:31.049Z,61.33
2016-11-29T18:00:57.131Z,61.61
2016-11-29T18:01:23.235Z,62.08
2016-11-29T18:01:49.363Z,61.61
2016-11-29T18:02:15.449Z,61.8
2016-11-29T18:02:41.536Z,61.8
2016-11-29T18:03:07.634Z,62.37
2016-11-29T18:03:33.725Z,62.08
2016-11-29T18:03:59.819Z,62.37
2016-11-29T18:04:25.903Z,62.47
2016-11-29T18:04:51.996Z,62.47
2016-11-29T18:05:18.091Z,62.28
2016-11-29T18:05:44.179Z,62.08
2016-11-29T18:06:10.266Z,62.37
2016-11-29T18:06:36.365Z,61.8
2016-11-29T18:07:02.458Z,61.8
2016-11-29T18:07:28.539Z,61.9
2016-11-29T18:07:54.637Z,61.9
2016-11-29T18:08:20.733Z,61.61
2016-11-29T18:08:46.822Z,61.99
2016-11-29T18:09:12.918Z,61.99
2016-11-29T18:09:39.017Z,61.99
2016-11-29T18:10:05.102Z,62.08
2016-11-29T18:10:31.191Z,62.18
2016-11-29T18:10:57.288Z,61.99
2016-11-29T18:11:23.375Z,61.71
2016-11-29T18:11:49.466Z,61.61
2016-11-29T18:12:15.567Z,61.52
2016-11-29T18:12:41.656Z,61.61
2016-11-29T18:13:07.739Z,62.08
2016-11-29T18:13:33.842Z,62.37
2016-11-29T18:13:59.928Z,62.28
2016-11-29T18:14:26.009Z,62.08
2016-11-29T18:14:52.105Z,62.18
2016-11-29T18:15:18.197Z,62.08
2016-11-29T18:15:44.290Z,62.18
2016-11-29T18:16:10.377Z,62.37
2016-11-29T18:16:36.464Z,62.08
2016-11-29T18:17:02.564Z,62.18
2016-11-29T18:17:28.649Z,62.28
2016-11-29T18:17:54.736Z,62.37
2016-11-29T18:18:20.833Z,61.9
2016-11-29T18:18:46.927Z,61.61
2016-11-29T18:19:13.012Z,61.8
2016-11-29T18:19:39.109Z,61.9
2016-11-29T18:20:05.211Z,61.8
2016-11-29T18:20:31.297Z,61.99
2016-11-29T18:20:57.702Z,61.71
2016-11-29T18:21:23.795Z,62.47
2016-11-29T18:21:49.892Z,62.56
2016-11-29T18:22:15.984Z,62.47
2016-11-29T18:22:42.084Z,62.28
2016-11-29T18:23:08.167Z,62.08
2016-11-29T18:23:34.269Z,62.37
2016-11-29T18:24:00.356Z,62.08
2016-11-29T18:24:26.447Z,62.08
2016-11-29T18:24:52.544Z,62.08
2016-11-29T18:25:18.635Z,62.18
2016-11-29T18:25:44.716Z,62.18
2016-11-29T18:26:10.806Z,62.28
2016-11-29T18:26:36.899Z,62.37
2016-11-29T18:27:02.993Z,61.71
2016-11-29T18:27:29.081Z,61.52
2016-11-29T18:27:55.178Z,61.61
2016-11-29T18:28:21.277Z,61.71
2016-11-29T18:28:47.361Z,61.8
2016-11-29T18:29:13.452Z,61.43
2016-11-29T18:29:39.555Z,61.52
2016-11-29T18:30:05.642Z,61.52
2016-11-29T18:30:31.730Z,61.24
2016-11-29T18:30:57.835Z,61.61
2016-11-29T18:31:23.924Z,61.52
2016-11-29T18:31:50.031Z,61.43
2016-11-29T18:32:16.098Z,61.52
2016-11-29T18:32:42.187Z,61.9
2016-11-29T18:33:08.294Z,61.99
2016-11-29T18:33:34.381Z,61.8
2016-11-29T18:34:00.470Z,61.8
2016-11-29T18:34:26.571Z,61.58
2016-11-29T18:34:52.663Z,61.8
2016-11-29T18:35:18.758Z,61.71
2016-11-29T18:35:44.860Z,61.9
2016-11-29T18:36:10.951Z,61.8
2016-11-29T18:36:37.034Z,61.52
2016-11-29T18:37:03.127Z,61.61
2016-11-29T18:37:29.213Z,61.52
2016-11-29T18:37:55.316Z,61.52
2016-11-29T18:38:21.408Z,61.61
2016-11-29T18:38:47.492Z,61.33
2016-11-29T18:39:13.588Z,61.61
2016-11-29T18:39:39.685Z,61.43
2016-11-29T18:40:05.774Z,61.33
2016-11-29T18:40:31.870Z,60.76
2016-11-29T18:40:57.966Z,60.76
2016-11-29T18:41:24.051Z,61.33
2016-11-29T18:41:50.148Z,61.52
2016-11-29T18:42:16.233Z,61.43
2016-11-29T18:42:42.343Z,61.8
2016-11-29T18:43:08.440Z,61.61
2016-11-29T18:43:34.525Z,61.9
2016-11-29T18:44:00.624Z,61.9
2016-11-29T18:44:26.725Z,61.52
2016-11-29T18:44:52.806Z,61.52
2016-11-29T18:45:18.902Z,61.43
2016-11-29T18:45:44.999Z,61.33
2016-11-29T18:46:11.087Z,61.61
2016-11-29T18:46:37.178Z,61.43
2016-11-29T18:47:03.275Z,61.61
2016-11-29T18:47:29.364Z,61.71
2016-11-29T18:47:55.451Z,61.14
2016-11-29T18:48:21.541Z,61.33
2016-11-29T18:48:47.638Z,61.43
2016-11-29T18:49:13.735Z,60.95
2016-11-29T18:49:39.823Z,61.33
2016-11-29T18:50:05.914Z,61.61
2016-11-29T18:50:32.012Z,61.58
2016-11-29T18:50:58.100Z,61.05
2016-11-29T18:51:24.217Z,60.95
2016-11-29T18:51:50.314Z,61.02
2016-11-29T18:52:16.406Z,61.49
2016-11-29T18:52:42.488Z,61.21
2016-11-29T18:53:08.586Z,61.49
2016-11-29T18:53:34.673Z,61.3
2016-11-29T18:54:00.760Z,61.3
2016-11-29T18:54:26.852Z,61.96
2016-11-29T18:54:52.953Z,61.49
2016-11-29T18:55:19.035Z,61.58
2016-11-29T18:55:45.129Z,61.49
2016-11-29T18:56:11.225Z,61.3
2016-11-29T18:56:37.307Z,61.49
2016-11-29T18:57:03.398Z,61.21
2016-11-29T18:57:29.491Z,61.58
2016-11-29T18:57:55.578Z,61.49
2016-11-29T18:58:21.662Z,61.68
2016-11-29T18:58:47.762Z,61.77
2016-11-29T18:59:13.855Z,61.96
2016-11-29T18:59:39.951Z,61.87
2016-11-29T19:00:06.035Z,61.77
2016-11-29T19:00:32.126Z,61.96
2016-11-29T19:00:58.227Z,61.58
2016-11-29T19:01:24.315Z,61.77
2016-11-29T19:01:50.398Z,61.58
2016-11-29T19:02:16.499Z,61.96
2016-11-29T19:02:42.589Z,61.58
2016-11-29T19:03:08.674Z,61.96
2016-11-29T19:03:34.770Z,61.68
2016-11-29T19:04:00.860Z,61.77
2016-11-29T19:04:26.948Z,61.68
2016-11-29T19:04:53.042Z,61.77
2016-11-29T19:05:19.127Z,61.77
2016-11-29T19:05:45.225Z,61.58
2016-11-29T19:06:11.340Z,61.77
2016-11-29T19:06:37.429Z,61.77
2016-11-29T19:07:03.548Z,62.24
2016-11-29T19:07:29.640Z,62.24
2016-11-29T19:07:55.729Z,62.34
2016-11-29T19:08:21.824Z,62.24
2016-11-29T19:08:47.922Z,62.34
2016-11-29T19:09:14.006Z,61.96
2016-11-29T19:09:40.099Z,62.24
2016-11-29T19:10:06.197Z,62.72
2016-11-29T19:10:32.281Z,62.34
2016-11-29T19:10:58.377Z,62.34
2016-11-29T19:11:24.461Z,62.72
2016-11-29T19:11:50.555Z,62.72
2016-11-29T19:12:16.653Z,62.53
2016-11-29T19:12:42.738Z,62.62
2016-11-29T19:13:08.834Z,62.72
2016-11-29T19:13:34.929Z,62.72
2016-11-29T19:14:01.015Z,62.43
2016-11-29T19:14:27.107Z,62.43
2016-11-29T19:14:53.199Z,62.24
2016-11-29T19:15:19.289Z,62.43
2016-11-29T19:15:45.375Z,62.53
2016-11-29T19:16:11.473Z,63.1
2016-11-29T19:16:37.562Z,62.91
2016-11-29T19:17:03.658Z,63.48
2016-11-29T19:17:29.745Z,63.1
2016-11-29T19:17:55.831Z,63.1
2016-11-29T19:18:21.926Z,63.29
2016-11-29T19:18:48.018Z,63.76
2016-11-29T19:19:14.105Z,63.29
2016-11-29T19:19:40.210Z,63.29
2016-11-29T19:20:06.301Z,63.39
2016-11-29T19:20:32.386Z,63.39
2016-11-29T19:20:58.492Z,63.39
2016-11-29T19:21:24.586Z,63.29
2016-11-29T19:21:50.676Z,63.57
2016-11-29T19:22:16.769Z,63.39
2016-11-29T19:22:42.855Z,63.39
2016-11-29T19:23:08.958Z,63.29
2016-11-29T19:23:35.068Z,63.29
2016-11-29T19:24:01.155Z,63.39
2016-11-29T19:24:27.251Z,63.48
2016-11-29T19:24:53.349Z,63.29
2016-11-29T19:25:19.431Z,63.67
2016-11-29T19:25:45.570Z,63.2
2016-11-29T19:26:11.664Z,63.29
2016-11-29T19:26:37.743Z,63.2
2016-11-29T19:27:03.846Z,63.2
2016-11-29T19:27:29.937Z,63.29
2016-11-29T19:27:56.038Z,63.67
2016-11-29T19:28:22.132Z,63.29
2016-11-29T19:28:48.222Z,63.2
2016-11-29T19:29:14.317Z,63.57
2016-11-29T19:29:40.414Z,63.29
2016-11-29T19:30:06.494Z,63.29
2016-11-29T19:30:32.599Z,63.2
2016-11-29T19:30:58.691Z,63.2
2016-11-29T19:31:24.774Z,63.39
2016-11-29T19:31:50.864Z,63.01
2016-11-29T19:32:16.972Z,63.48
2016-11-29T19:32:43.067Z,63.39
2016-11-29T19:33:09.169Z,63.39
2016-11-29T19:33:35.251Z,63.29
2016-11-29T19:34:01.350Z,63.07
2016-11-29T19:34:27.443Z,63.45
2016-11-29T19:34:53.531Z,63.54
2016-11-29T19:35:19.625Z,64.11
2016-11-29T19:35:45.727Z,63.73
2016-11-29T19:36:11.810Z,63.82
2016-11-29T19:36:37.894Z,64.49
2016-11-29T19:37:03.994Z,64.11
2016-11-29T19:37:30.082Z,64.2
2016-11-29T19:37:56.168Z,64.58
2016-11-29T19:38:22.274Z,64.77
2016-11-29T19:38:48.372Z,64.68
2016-11-29T19:39:14.456Z,64.2
2016-11-29T19:39:40.550Z,64.3
2016-11-29T19:40:06.647Z,64.39
2016-11-29T19:40:32.731Z,64.39
2016-11-29T19:40:58.827Z,64.68
2016-11-29T19:41:24.932Z,64.77
2016-11-29T19:41:51.021Z,64.2
2016-11-29T19:42:17.120Z,65.25
2016-11-29T19:42:43.222Z,64.96
2016-11-29T19:43:09.314Z,65.06
2016-11-29T19:43:35.409Z,64.96
2016-11-29T19:44:01.510Z,64.96
2016-11-29T19:44:27.610Z,64.68
2016-11-29T19:44:53.751Z,64.77
2016-11-29T19:45:19.855Z,64.77
2016-11-29T19:45:45.974Z,64.96
2016-11-29T19:46:12.097Z,64.96
2016-11-29T19:46:38.194Z,65.06
2016-11-29T19:47:04.313Z,64.77
2016-11-29T19:47:30.417Z,64.87
2016-11-29T19:47:56.528Z,64.77
2016-11-29T19:48:22.679Z,64.58
2016-11-29T19:48:48.800Z,64.3
2016-11-29T19:49:14.901Z,64.77
2016-11-29T19:49:41.078Z,64.96
2016-11-29T19:50:07.268Z,64.96
2016-11-29T19:50:33.412Z,64.96
2016-11-29T19:50:59.522Z,64.87
2016-11-29T19:51:25.651Z,65.53
2016-11-29T19:51:51.745Z,65.34
2016-11-29T19:52:17.879Z,65.53
2016-11-29T19:52:43.988Z,65.06
2016-11-29T19:53:10.110Z,65.25
2016-11-29T19:53:36.223Z,65.53
2016-11-29T19:54:02.358Z,65.15
2016-11-29T19:54:28.454Z,65.15
2016-11-29T19:54:54.542Z,65.53
2016-11-29T19:55:20.831Z,65.44
2016-11-29T19:55:46.938Z,65.53
2016-11-29T19:56:13.045Z,65.44
2016-11-29T19:56:39.151Z,65.06
2016-11-29T19:57:05.278Z,65.06
2016-11-29T19:57:31.381Z,64.58
2016-11-29T19:57:57.481Z,64.77
2016-11-29T19:58:23.569Z,64.87
2016-11-29T19:58:49.714Z,64.87
2016-11-29T19:59:15.810Z,64.58
2016-11-29T19:59:41.914Z,64.58
2016-11-29T20:00:08.040Z,64.39
2016-11-29T20:00:34.142Z,64.68
2016-11-29T20:01:00.286Z,64.3
2016-11-29T20:01:26.457Z,64.3
2016-11-29T20:01:52.566Z,64.2
2016-11-29T20:02:18.681Z,64.11
2016-11-29T20:02:44.788Z,64.58
2016-11-29T20:03:10.901Z,64.58
2016-11-29T20:03:37.061Z,64.58
2016-11-29T20:04:03.189Z,64.2
2016-11-29T20:04:29.323Z,64.68
2016-11-29T20:04:55.505Z,64.49
2016-11-29T20:05:21.640Z,64.01
2016-11-29T20:05:47.793Z,64.68
2016-11-29T20:06:13.951Z,64.49
2016-11-29T20:06:40.085Z,65.25
2016-11-29T20:07:06.216Z,65.15
2016-11-29T20:07:32.317Z,65.15
2016-11-29T20:07:58.427Z,64.68
2016-11-29T20:08:24.561Z,64.3
2016-11-29T20:08:50.682Z,64.3
2016-11-29T20:09:16.819Z,64.3
2016-11-29T20:09:42.948Z,64.11
2016-11-29T20:10:09.131Z,64.11
2016-11-29T20:10:35.293Z,65.44
2016-11-29T20:11:01.421Z,65.15
2016-11-29T20:11:27.558Z,65.53
2016-11-29T20:11:53.670Z,65.81
2016-11-29T20:12:19.798Z,65.53
2016-11-29T20:12:45.893Z,65.81
2016-11-29T20:13:12.011Z,65.72
2016-11-29T20:13:38.135Z,65.63
2016-11-29T20:14:04.236Z,65.81
2016-11-29T20:14:30.339Z,65.91
2016-11-29T20:14:56.462Z,65.63
2016-11-29T20:15:22.578Z,65.91
2016-11-29T20:15:48.698Z,65.44
2016-11-29T20:16:14.797Z,65.63
2016-11-29T20:16:40.917Z,65.97
2016-11-29T20:17:07.038Z,66.28
2016-11-29T20:17:33.199Z,66.19
2016-11-29T20:17:59.320Z,66
2016-11-29T20:18:25.426Z,66.28
2016-11-29T20:18:51.521Z,66.28
2016-11-29T20:19:17.656Z,66.28
2016-11-29T20:19:43.817Z,66.25
2016-11-29T20:20:09.926Z,66.44